sensor_id;sensor_type;location;lat;lon;timestamp;pressure;altitude;pressure_sealevel;temperature;humidity
8894;BME280;4483;48.622;9.230;2023-03-01T00:02:14;98640.44;;;-1.10;76.63
8894;BME280;4483;48.622;9.230;2023-03-01T00:04:40;98632.78;;;-1.14;76.51
8894;BME280;4483;48.622;9.230;2023-03-01T00:07:07;98635.28;;;-1.16;77.03
8894;BME280;4483;48.622;9.230;2023-03-01T00:09:35;98630.16;;;-1.19;76.84
8894;BME280;4483;48.622;9.230;2023-03-01T00:12:03;98641.13;;;-1.18;77.35
8894;BME280;4483;48.622;9.230;2023-03-01T00:14:30;98637.69;;;-1.22;77.28
8894;BME280;4483;48.622;9.230;2023-03-01T00:16:57;98636.78;;;-1.25;77.12
8894;BME280;4483;48.622;9.230;2023-03-01T00:19:24;98638.41;;;-1.29;77.61
8894;BME280;4483;48.622;9.230;2023-03-01T00:21:50;98645.97;;;-1.30;77.27
8894;BME280;4483;48.622;9.230;2023-03-01T00:24:17;98646.72;;;-1.34;77.46
8894;BME280;4483;48.622;9.230;2023-03-01T00:26:45;98645.00;;;-1.37;77.81
8894;BME280;4483;48.622;9.230;2023-03-01T00:29:11;98634.84;;;-1.38;78.04
8894;BME280;4483;48.622;9.230;2023-03-01T00:31:38;98631.47;;;-1.39;77.72
8894;BME280;4483;48.622;9.230;2023-03-01T00:34:05;98631.44;;;-1.40;77.90
8894;BME280;4483;48.622;9.230;2023-03-01T00:36:35;98622.09;;;-1.44;78.00
8894;BME280;4483;48.622;9.230;2023-03-01T00:39:02;98632.19;;;-1.46;77.81
8894;BME280;4483;48.622;9.230;2023-03-01T00:41:30;98618.66;;;-1.48;77.86
8894;BME280;4483;48.622;9.230;2023-03-01T00:43:58;98623.66;;;-1.51;77.90
8894;BME280;4483;48.622;9.230;2023-03-01T00:46:26;98620.28;;;-1.51;78.38
8894;BME280;4483;48.622;9.230;2023-03-01T00:48:55;98624.47;;;-1.52;78.61
8894;BME280;4483;48.622;9.230;2023-03-01T00:51:23;98620.22;;;-1.56;78.85
8894;BME280;4483;48.622;9.230;2023-03-01T00:53:51;98622.75;;;-1.56;78.92
8894;BME280;4483;48.622;9.230;2023-03-01T00:56:18;98621.78;;;-1.59;78.70
8894;BME280;4483;48.622;9.230;2023-03-01T00:58:45;98621.78;;;-1.61;78.43
8894;BME280;4483;48.622;9.230;2023-03-01T01:01:15;98620.84;;;-1.66;78.67
8894;BME280;4483;48.622;9.230;2023-03-01T01:03:51;98614.09;;;-1.67;79.26
8894;BME280;4483;48.622;9.230;2023-03-01T01:06:20;98613.22;;;-1.69;79.31
8894;BME280;4483;48.622;9.230;2023-03-01T01:08:48;98607.28;;;-1.71;78.93
8894;BME280;4483;48.622;9.230;2023-03-01T01:11:15;98616.53;;;-1.71;78.91
8894;BME280;4483;48.622;9.230;2023-03-01T01:13:44;98611.44;;;-1.73;79.11
8894;BME280;4483;48.622;9.230;2023-03-01T01:16:12;98613.09;;;-1.75;79.11
8894;BME280;4483;48.622;9.230;2023-03-01T01:18:39;98613.88;;;-1.77;79.55
8894;BME280;4483;48.622;9.230;2023-03-01T01:21:08;98603.72;;;-1.80;79.80
8894;BME280;4483;48.622;9.230;2023-03-01T01:23:36;98599.44;;;-1.83;79.98
8894;BME280;4483;48.622;9.230;2023-03-01T01:26:04;98605.28;;;-1.87;79.83
8894;BME280;4483;48.622;9.230;2023-03-01T01:28:31;98595.09;;;-1.90;80.34
8894;BME280;4483;48.622;9.230;2023-03-01T01:30:58;98603.50;;;-1.91;79.67
8894;BME280;4483;48.622;9.230;2023-03-01T01:33:26;98595.06;;;-1.91;80.16
8894;BME280;4483;48.622;9.230;2023-03-01T01:35:53;98591.69;;;-1.92;80.62
8894;BME280;4483;48.622;9.230;2023-03-01T01:38:20;98591.69;;;-1.92;80.13
8894;BME280;4483;48.622;9.230;2023-03-01T01:40:48;98591.75;;;-1.90;80.37
8894;BME280;4483;48.622;9.230;2023-03-01T01:43:21;98586.72;;;-1.89;81.08
8894;BME280;4483;48.622;9.230;2023-03-01T01:45:49;98589.28;;;-1.86;81.10
8894;BME280;4483;48.622;9.230;2023-03-01T01:48:19;98592.75;;;-1.81;80.89
8894;BME280;4483;48.622;9.230;2023-03-01T01:50:53;98585.19;;;-1.79;80.91
8894;BME280;4483;48.622;9.230;2023-03-01T01:53:21;98586.94;;;-1.77;81.70
8894;BME280;4483;48.622;9.230;2023-03-01T01:55:52;98588.72;;;-1.73;81.20
8894;BME280;4483;48.622;9.230;2023-03-01T01:58:24;98585.44;;;-1.69;82.04
8894;BME280;4483;48.622;9.230;2023-03-01T02:00:52;98582.91;;;-1.67;82.02
8894;BME280;4483;48.622;9.230;2023-03-01T02:03:22;98581.28;;;-1.65;82.12
8894;BME280;4483;48.622;9.230;2023-03-01T02:05:57;98583.00;;;-1.63;81.79
8894;BME280;4483;48.622;9.230;2023-03-01T02:08:27;98571.22;;;-1.62;81.85
8894;BME280;4483;48.622;9.230;2023-03-01T02:10:56;98569.56;;;-1.60;82.47
8894;BME280;4483;48.622;9.230;2023-03-01T02:13:25;98563.69;;;-1.59;82.58
8894;BME280;4483;48.622;9.230;2023-03-01T02:15:52;98561.16;;;-1.59;82.57
8894;BME280;4483;48.622;9.230;2023-03-01T02:18:21;98564.56;;;-1.57;82.51
8894;BME280;4483;48.622;9.230;2023-03-01T02:21:00;98559.56;;;-1.56;82.28
8894;BME280;4483;48.622;9.230;2023-03-01T02:23:28;98562.13;;;-1.53;83.06
8894;BME280;4483;48.622;9.230;2023-03-01T02:26:00;98555.41;;;-1.52;83.15
8894;BME280;4483;48.622;9.230;2023-03-01T02:28:34;98555.50;;;-1.48;82.81
8894;BME280;4483;48.622;9.230;2023-03-01T02:31:03;98553.84;;;-1.46;83.60
8894;BME280;4483;48.622;9.230;2023-03-01T02:33:48;98547.19;;;-1.41;83.61
8894;BME280;4483;48.622;9.230;2023-03-01T02:36:17;98546.41;;;-1.38;83.75
8894;BME280;4483;48.622;9.230;2023-03-01T02:38:46;98543.03;;;-1.37;83.60
8894;BME280;4483;48.622;9.230;2023-03-01T02:41:15;98535.50;;;-1.36;83.29
8894;BME280;4483;48.622;9.230;2023-03-01T02:43:45;98535.53;;;-1.33;83.53
8894;BME280;4483;48.622;9.230;2023-03-01T02:46:16;98533.06;;;-1.30;83.73
8894;BME280;4483;48.622;9.230;2023-03-01T02:48:46;98529.75;;;-1.26;84.34
8894;BME280;4483;48.622;9.230;2023-03-01T02:51:27;98534.84;;;-1.23;83.91
8894;BME280;4483;48.622;9.230;2023-03-01T02:54:05;98527.34;;;-1.20;84.26
8894;BME280;4483;48.622;9.230;2023-03-01T02:56:34;98526.50;;;-1.19;84.54
8894;BME280;4483;48.622;9.230;2023-03-01T02:59:03;98527.38;;;-1.17;84.45
8894;BME280;4483;48.622;9.230;2023-03-01T03:01:30;98524.84;;;-1.17;84.37
8894;BME280;4483;48.622;9.230;2023-03-01T03:04:03;98522.34;;;-1.15;84.24
8894;BME280;4483;48.622;9.230;2023-03-01T03:06:30;98519.88;;;-1.12;84.48
8894;BME280;4483;48.622;9.230;2023-03-01T03:08:56;98513.19;;;-1.09;84.51
8894;BME280;4483;48.622;9.230;2023-03-01T03:11:23;98516.53;;;-1.08;85.13
8894;BME280;4483;48.622;9.230;2023-03-01T03:13:51;98510.69;;;-1.06;84.84
8894;BME280;4483;48.622;9.230;2023-03-01T03:16:19;98502.31;;;-1.05;85.09
8894;BME280;4483;48.622;9.230;2023-03-01T03:18:46;98505.72;;;-1.01;85.08
8894;BME280;4483;48.622;9.230;2023-03-01T03:21:14;98492.22;;;-1.00;85.26
8894;BME280;4483;48.622;9.230;2023-03-01T03:23:41;98502.38;;;-0.97;85.37
8894;BME280;4483;48.622;9.230;2023-03-01T03:26:08;98494.88;;;-0.94;85.37
8894;BME280;4483;48.622;9.230;2023-03-01T03:28:38;98499.94;;;-0.94;85.12
8894;BME280;4483;48.622;9.230;2023-03-01T03:31:06;98502.50;;;-0.91;85.66
8894;BME280;4483;48.622;9.230;2023-03-01T03:33:35;98494.91;;;-0.89;85.51
8894;BME280;4483;48.622;9.230;2023-03-01T03:36:02;98495.84;;;-0.84;85.76
8894;BME280;4483;48.622;9.230;2023-03-01T03:38:29;98495.91;;;-0.81;85.85
8894;BME280;4483;48.622;9.230;2023-03-01T03:41:00;98492.53;;;-0.80;86.01
8894;BME280;4483;48.622;9.230;2023-03-01T03:43:29;98496.78;;;-0.78;85.99
8894;BME280;4483;48.622;9.230;2023-03-01T03:45:57;98492.56;;;-0.79;85.82
8894;BME280;4483;48.622;9.230;2023-03-01T03:48:24;98496.78;;;-0.78;86.29
8894;BME280;4483;48.622;9.230;2023-03-01T03:50:53;98483.28;;;-0.77;86.97
8894;BME280;4483;48.622;9.230;2023-03-01T03:53:21;98490.97;;;-0.72;86.67
8894;BME280;4483;48.622;9.230;2023-03-01T03:55:49;98482.53;;;-0.71;86.68
8894;BME280;4483;48.622;9.230;2023-03-01T03:58:17;98481.72;;;-0.70;86.66
8894;BME280;4483;48.622;9.230;2023-03-01T04:00:47;98481.72;;;-0.70;86.36
8894;BME280;4483;48.622;9.230;2023-03-01T04:03:15;98477.50;;;-0.70;86.81
8894;BME280;4483;48.622;9.230;2023-03-01T04:05:44;98475.81;;;-0.69;86.73
8894;BME280;4483;48.622;9.230;2023-03-01T04:08:12;98475.88;;;-0.66;86.95
8894;BME280;4483;48.622;9.230;2023-03-01T04:10:41;98470.81;;;-0.65;87.17
8894;BME280;4483;48.622;9.230;2023-03-01T04:13:11;98470.84;;;-0.63;87.64
8894;BME280;4483;48.622;9.230;2023-03-01T04:15:38;98463.28;;;-0.60;87.65
8894;BME280;4483;48.622;9.230;2023-03-01T04:18:05;98462.47;;;-0.58;87.70
8894;BME280;4483;48.622;9.230;2023-03-01T04:20:34;98464.22;;;-0.55;87.54
8894;BME280;4483;48.622;9.230;2023-03-01T04:23:03;98463.38;;;-0.54;87.42
8894;BME280;4483;48.622;9.230;2023-03-01T04:25:38;98459.16;;;-0.55;87.72
8894;BME280;4483;48.622;9.230;2023-03-01T04:28:05;98463.38;;;-0.54;87.76
8894;BME280;4483;48.622;9.230;2023-03-01T04:30:32;98460.03;;;-0.52;87.69
8894;BME280;4483;48.622;9.230;2023-03-01T04:33:01;98463.44;;;-0.48;87.76
8894;BME280;4483;48.622;9.230;2023-03-01T04:35:28;98456.75;;;-0.45;88.03
8894;BME280;4483;48.622;9.230;2023-03-01T04:37:55;98453.41;;;-0.42;88.23
8894;BME280;4483;48.622;9.230;2023-03-01T04:40:22;98454.28;;;-0.39;88.38
8894;BME280;4483;48.622;9.230;2023-03-01T04:42:50;98453.47;;;-0.36;87.87
8894;BME280;4483;48.622;9.230;2023-03-01T04:45:16;98451.81;;;-0.34;88.36
8894;BME280;4483;48.622;9.230;2023-03-01T04:47:44;98449.31;;;-0.31;88.50
8894;BME280;4483;48.622;9.230;2023-03-01T04:50:14;98445.16;;;-0.28;88.69
8894;BME280;4483;48.622;9.230;2023-03-01T04:52:41;98446.84;;;-0.24;87.94
8894;BME280;4483;48.622;9.230;2023-03-01T04:55:09;98449.44;;;-0.22;88.08
8894;BME280;4483;48.622;9.230;2023-03-01T04:57:36;98448.59;;;-0.21;88.20
8894;BME280;4483;48.622;9.230;2023-03-01T05:00:06;98451.13;;;-0.20;88.35
8894;BME280;4483;48.622;9.230;2023-03-01T05:02:46;98447.78;;;-0.17;88.14
8894;BME280;4483;48.622;9.230;2023-03-01T05:05:13;98455.41;;;-0.14;88.53
8894;BME280;4483;48.622;9.230;2023-03-01T05:07:40;98448.69;;;-0.12;88.67
8894;BME280;4483;48.622;9.230;2023-03-01T05:10:07;98451.28;;;-0.08;88.39
8894;BME280;4483;48.622;9.230;2023-03-01T05:12:34;98441.97;;;-0.07;87.99
8894;BME280;4483;48.622;9.230;2023-03-01T05:15:05;98443.72;;;-0.03;88.21
8894;BME280;4483;48.622;9.230;2023-03-01T05:17:32;98448.78;;;-0.02;87.85
8894;BME280;4483;48.622;9.230;2023-03-01T05:19:59;98436.16;;;0.00;87.67
8894;BME280;4483;48.622;9.230;2023-03-01T05:22:26;98442.06;;;0.02;87.70
8894;BME280;4483;48.622;9.230;2023-03-01T05:24:53;98444.59;;;0.02;86.92
8894;BME280;4483;48.622;9.230;2023-03-01T05:27:20;98442.94;;;0.04;87.71
8894;BME280;4483;48.622;9.230;2023-03-01T05:29:48;98443.00;;;0.07;87.28
8894;BME280;4483;48.622;9.230;2023-03-01T05:32:15;98447.22;;;0.10;87.67
8894;BME280;4483;48.622;9.230;2023-03-01T05:34:42;98442.16;;;0.11;87.05
8894;BME280;4483;48.622;9.230;2023-03-01T05:37:11;98448.09;;;0.13;87.37
8894;BME280;4483;48.622;9.230;2023-03-01T05:39:39;98443.91;;;0.15;87.34
8894;BME280;4483;48.622;9.230;2023-03-01T05:42:10;98445.63;;;0.18;86.91
8894;BME280;4483;48.622;9.230;2023-03-01T05:44:37;98445.63;;;0.19;87.07
8894;BME280;4483;48.622;9.230;2023-03-01T05:47:04;98444.81;;;0.20;87.35
8894;BME280;4483;48.622;9.230;2023-03-01T05:49:32;98447.38;;;0.25;87.06
8894;BME280;4483;48.622;9.230;2023-03-01T05:51:59;98443.16;;;0.25;86.75
8894;BME280;4483;48.622;9.230;2023-03-01T05:54:26;98436.44;;;0.27;87.38
8894;BME280;4483;48.622;9.230;2023-03-01T05:56:53;98434.75;;;0.29;86.49
8894;BME280;4483;48.622;9.230;2023-03-01T05:59:19;98438.13;;;0.30;85.83
8894;BME280;4483;48.622;9.230;2023-03-01T06:01:46;98438.97;;;0.32;86.36
8894;BME280;4483;48.622;9.230;2023-03-01T06:04:13;98432.25;;;0.34;86.37
8894;BME280;4483;48.622;9.230;2023-03-01T06:06:40;98424.66;;;0.35;86.46
8894;BME280;4483;48.622;9.230;2023-03-01T06:09:07;98432.25;;;0.35;86.18
8894;BME280;4483;48.622;9.230;2023-03-01T06:11:35;98434.84;;;0.38;86.46
8894;BME280;4483;48.622;9.230;2023-03-01T06:14:02;98428.91;;;0.39;85.91
8894;BME280;4483;48.622;9.230;2023-03-01T06:16:29;98428.09;;;0.40;86.35
8894;BME280;4483;48.622;9.230;2023-03-01T06:18:56;98422.25;;;0.47;85.78
8894;BME280;4483;48.622;9.230;2023-03-01T06:21:23;98426.50;;;0.53;85.64
8894;BME280;4483;48.622;9.230;2023-03-01T06:23:51;98421.50;;;0.60;85.57
8894;BME280;4483;48.622;9.230;2023-03-01T06:26:18;98424.94;;;0.70;85.13
8894;BME280;4483;48.622;9.230;2023-03-01T06:28:45;98426.72;;;0.80;85.54
8894;BME280;4483;48.622;9.230;2023-03-01T06:31:11;98422.56;;;0.92;84.88
8894;BME280;4483;48.622;9.230;2023-03-01T06:33:38;98423.47;;;1.03;84.35
8894;BME280;4483;48.622;9.230;2023-03-01T06:36:05;98421.84;;;1.16;85.02
8894;BME280;4483;48.622;9.230;2023-03-01T06:38:32;98426.16;;;1.31;84.08
8894;BME280;4483;48.622;9.230;2023-03-01T06:41:00;98424.53;;;1.43;83.25
8894;BME280;4483;48.622;9.230;2023-03-01T06:43:27;98426.28;;;1.58;83.12
8894;BME280;4483;48.622;9.230;2023-03-01T06:45:54;98431.44;;;1.73;82.19
8894;BME280;4483;48.622;9.230;2023-03-01T06:48:20;98434.88;;;1.90;82.08
8894;BME280;4483;48.622;9.230;2023-03-01T06:50:47;98429.84;;;2.05;81.11
8894;BME280;4483;48.622;9.230;2023-03-01T06:53:14;98432.41;;;2.23;80.70
8894;BME280;4483;48.622;9.230;2023-03-01T06:55:41;98429.03;;;2.42;79.11
8894;BME280;4483;48.622;9.230;2023-03-01T06:58:09;98415.50;;;2.61;78.62
8894;BME280;4483;48.622;9.230;2023-03-01T07:00:36;98420.56;;;2.79;78.88
8894;BME280;4483;48.622;9.230;2023-03-01T07:03:05;98418.84;;;2.99;76.34
8894;BME280;4483;48.622;9.230;2023-03-01T07:05:33;98416.25;;;3.22;77.41
8894;BME280;4483;48.622;9.230;2023-03-01T07:07:59;98412.78;;;3.44;77.05
8894;BME280;4483;48.622;9.230;2023-03-01T07:10:26;98417.78;;;3.70;74.62
8894;BME280;4483;48.622;9.230;2023-03-01T07:12:55;98407.50;;;3.85;72.80
8894;BME280;4483;48.622;9.230;2023-03-01T07:15:23;98407.38;;;4.07;74.87
8894;BME280;4483;48.622;9.230;2023-03-01T07:17:50;98413.16;;;4.34;74.73
8894;BME280;4483;48.622;9.230;2023-03-01T07:20:18;98400.22;;;4.59;74.09
8894;BME280;4483;48.622;9.230;2023-03-01T07:22:47;98400.84;;;4.82;71.17
8894;BME280;4483;48.622;9.230;2023-03-01T07:25:14;98402.34;;;5.04;71.99
8894;BME280;4483;48.622;9.230;2023-03-01T07:27:41;98396.19;;;5.25;71.04
8894;BME280;4483;48.622;9.230;2023-03-01T07:30:09;98384.94;;;5.40;69.10
8894;BME280;4483;48.622;9.230;2023-03-01T07:32:37;98392.41;;;5.56;66.83
8894;BME280;4483;48.622;9.230;2023-03-01T07:35:04;98397.34;;;5.68;68.00
8894;BME280;4483;48.622;9.230;2023-03-01T07:37:31;98395.41;;;5.90;67.45
8894;BME280;4483;48.622;9.230;2023-03-01T07:39:58;98393.63;;;5.93;63.93
8894;BME280;4483;48.622;9.230;2023-03-01T07:42:24;98385.91;;;5.98;62.07
8894;BME280;4483;48.622;9.230;2023-03-01T07:44:51;98379.00;;;6.06;61.80
8894;BME280;4483;48.622;9.230;2023-03-01T07:47:17;98366.91;;;6.17;63.26
8894;BME280;4483;48.622;9.230;2023-03-01T07:49:46;98368.31;;;6.35;62.02
8894;BME280;4483;48.622;9.230;2023-03-01T07:52:13;98367.22;;;6.49;60.58
8894;BME280;4483;48.622;9.230;2023-03-01T07:54:42;98362.66;;;6.68;62.28
8894;BME280;4483;48.622;9.230;2023-03-01T07:57:09;98358.44;;;6.65;58.38
8894;BME280;4483;48.622;9.230;2023-03-01T07:59:36;98357.38;;;6.77;59.49
8894;BME280;4483;48.622;9.230;2023-03-01T08:02:02;98359.84;;;6.83;56.93
8894;BME280;4483;48.622;9.230;2023-03-01T08:04:29;98359.53;;;6.99;55.71
8894;BME280;4483;48.622;9.230;2023-03-01T08:06:57;98354.25;;;7.08;56.77
8894;BME280;4483;48.622;9.230;2023-03-01T08:09:24;98362.38;;;7.30;56.42
8894;BME280;4483;48.622;9.230;2023-03-01T08:11:51;98356.88;;;7.48;54.55
8894;BME280;4483;48.622;9.230;2023-03-01T08:14:19;98353.41;;;7.51;54.36
8894;BME280;4483;48.622;9.230;2023-03-01T08:16:49;98357.50;;;7.59;55.93
8894;BME280;4483;48.622;9.230;2023-03-01T08:19:15;98353.69;;;7.77;55.37
8894;BME280;4483;48.622;9.230;2023-03-01T08:21:42;98354.97;;;7.97;55.09
8894;BME280;4483;48.622;9.230;2023-03-01T08:24:10;98350.59;;;8.01;52.71
8894;BME280;4483;48.622;9.230;2023-03-01T08:26:37;98344.00;;;8.29;53.75
8894;BME280;4483;48.622;9.230;2023-03-01T08:29:03;98340.28;;;8.42;53.47
8894;BME280;4483;48.622;9.230;2023-03-01T08:31:32;98342.47;;;8.56;51.37
8894;BME280;4483;48.622;9.230;2023-03-01T08:34:01;98345.41;;;8.76;51.72
8894;BME280;4483;48.622;9.230;2023-03-01T08:36:30;98341.97;;;8.75;48.77
8894;BME280;4483;48.622;9.230;2023-03-01T08:38:58;98338.13;;;8.93;50.75
8894;BME280;4483;48.622;9.230;2023-03-01T08:41:26;98342.97;;;9.03;49.87
8894;BME280;4483;48.622;9.230;2023-03-01T08:43:53;98340.94;;;9.14;50.27
8894;BME280;4483;48.622;9.230;2023-03-01T08:46:24;98336.34;;;8.95;47.31
8894;BME280;4483;48.622;9.230;2023-03-01T08:48:51;98342.72;;;9.12;48.20
8894;BME280;4483;48.622;9.230;2023-03-01T08:51:19;98333.50;;;8.72;48.22
8894;BME280;4483;48.622;9.230;2023-03-01T08:53:47;98332.00;;;8.97;49.08
8894;BME280;4483;48.622;9.230;2023-03-01T08:56:14;98334.63;;;8.94;47.01
8894;BME280;4483;48.622;9.230;2023-03-01T08:58:45;98326.03;;;8.64;48.12
8894;BME280;4483;48.622;9.230;2023-03-01T09:01:13;98322.53;;;8.99;48.51
8894;BME280;4483;48.622;9.230;2023-03-01T09:03:41;98319.66;;;9.40;48.62
8894;BME280;4483;48.622;9.230;2023-03-01T09:06:08;98317.25;;;9.65;46.99
8894;BME280;4483;48.622;9.230;2023-03-01T09:08:35;98317.25;;;9.65;46.12
8894;BME280;4483;48.622;9.230;2023-03-01T09:11:02;98303.38;;;9.98;46.92
8894;BME280;4483;48.622;9.230;2023-03-01T09:13:29;98298.19;;;10.26;45.41
8894;BME280;4483;48.622;9.230;2023-03-01T09:15:59;98308.50;;;10.52;44.68
8894;BME280;4483;48.622;9.230;2023-03-01T09:18:26;98286.47;;;10.68;44.01
8894;BME280;4483;48.622;9.230;2023-03-01T09:20:53;98293.28;;;10.70;42.76
8894;BME280;4483;48.622;9.230;2023-03-01T09:23:26;98305.19;;;10.48;43.34
8894;BME280;4483;48.622;9.230;2023-03-01T09:25:53;98293.03;;;10.26;43.24
8894;BME280;4483;48.622;9.230;2023-03-01T09:28:19;98294.34;;;10.39;43.91
8894;BME280;4483;48.622;9.230;2023-03-01T09:30:48;98286.84;;;10.31;44.03
8894;BME280;4483;48.622;9.230;2023-03-01T09:33:16;98303.16;;;10.04;43.39
8894;BME280;4483;48.622;9.230;2023-03-01T09:35:43;98289.03;;;9.89;44.18
8894;BME280;4483;48.622;9.230;2023-03-01T09:38:12;98287.19;;;9.93;43.65
8894;BME280;4483;48.622;9.230;2023-03-01T09:40:43;98287.63;;;9.79;44.53
8894;BME280;4483;48.622;9.230;2023-03-01T09:43:18;98294.56;;;10.05;44.77
8894;BME280;4483;48.622;9.230;2023-03-01T09:45:49;98290.38;;;10.01;43.39
8894;BME280;4483;48.622;9.230;2023-03-01T09:48:21;98285.94;;;10.06;43.96
8894;BME280;4483;48.622;9.230;2023-03-01T09:50:50;98289.09;;;10.16;42.98
8894;BME280;4483;48.622;9.230;2023-03-01T09:53:20;98277.59;;;10.26;43.51
8894;BME280;4483;48.622;9.230;2023-03-01T09:55:52;98275.97;;;10.49;43.75
8894;BME280;4483;48.622;9.230;2023-03-01T09:58:36;98277.81;;;10.95;42.79
8894;BME280;4483;48.622;9.230;2023-03-01T10:01:17;98273.47;;;11.20;42.44
8894;BME280;4483;48.622;9.230;2023-03-01T10:04:00;98275.38;;;11.38;41.93
8894;BME280;4483;48.622;9.230;2023-03-01T10:06:29;98265.25;;;11.78;42.31
8894;BME280;4483;48.622;9.230;2023-03-01T10:08:58;98261.44;;;11.88;41.66
8894;BME280;4483;48.622;9.230;2023-03-01T10:11:30;98264.97;;;11.86;40.64
8894;BME280;4483;48.622;9.230;2023-03-01T10:14:01;98247.91;;;12.03;41.08
8894;BME280;4483;48.622;9.230;2023-03-01T10:16:39;98255.97;;;12.38;39.86
8894;BME280;4483;48.622;9.230;2023-03-01T10:19:14;98240.59;;;12.55;40.58
8894;BME280;4483;48.622;9.230;2023-03-01T10:21:45;98239.47;;;12.80;40.29
8894;BME280;4483;48.622;9.230;2023-03-01T10:24:13;98231.31;;;13.09;39.93
8894;BME280;4483;48.622;9.230;2023-03-01T10:26:47;98229.03;;;13.03;38.78
8894;BME280;4483;48.622;9.230;2023-03-01T10:29:15;98232.94;;;12.92;38.27
8894;BME280;4483;48.622;9.230;2023-03-01T10:31:44;98234.59;;;12.74;38.20
8894;BME280;4483;48.622;9.230;2023-03-01T10:34:16;98236.50;;;12.29;39.06
8894;BME280;4483;48.622;9.230;2023-03-01T10:36:44;98224.75;;;12.62;39.36
8894;BME280;4483;48.622;9.230;2023-03-01T10:39:14;98218.59;;;13.05;39.81
8894;BME280;4483;48.622;9.230;2023-03-01T10:41:54;98215.81;;;13.28;38.40
8894;BME280;4483;48.622;9.230;2023-03-01T10:44:49;98218.91;;;13.55;38.63
8894;BME280;4483;48.622;9.230;2023-03-01T10:47:18;98209.44;;;13.54;38.19
8894;BME280;4483;48.622;9.230;2023-03-01T10:49:57;98202.53;;;13.36;38.03
8894;BME280;4483;48.622;9.230;2023-03-01T10:52:27;98208.47;;;13.19;37.95
8894;BME280;4483;48.622;9.230;2023-03-01T10:54:56;98200.88;;;13.35;38.33
8894;BME280;4483;48.622;9.230;2023-03-01T10:57:35;98201.84;;;12.93;36.73
8894;BME280;4483;48.622;9.230;2023-03-01T11:00:24;98198.88;;;12.82;37.17
8894;BME280;4483;48.622;9.230;2023-03-01T11:03:03;98191.75;;;13.07;37.96
8894;BME280;4483;48.622;9.230;2023-03-01T11:05:36;98194.09;;;12.93;37.53
8894;BME280;4483;48.622;9.230;2023-03-01T11:08:04;98183.97;;;12.89;36.80
8894;BME280;4483;48.622;9.230;2023-03-01T11:10:32;98180.03;;;12.99;37.84
8894;BME280;4483;48.622;9.230;2023-03-01T11:13:07;98176.22;;;13.26;37.33
8894;BME280;4483;48.622;9.230;2023-03-01T11:15:35;98177.94;;;13.27;37.02
8894;BME280;4483;48.622;9.230;2023-03-01T11:18:02;98170.88;;;12.92;36.96
8894;BME280;4483;48.622;9.230;2023-03-01T11:20:31;98159.00;;;12.88;36.84
8894;BME280;4483;48.622;9.230;2023-03-01T11:23:02;98150.09;;;13.13;37.43
8894;BME280;4483;48.622;9.230;2023-03-01T11:25:33;98146.69;;;13.49;37.56
8894;BME280;4483;48.622;9.230;2023-03-01T11:28:03;98145.38;;;13.76;37.35
8894;BME280;4483;48.622;9.230;2023-03-01T11:30:33;98139.88;;;13.48;37.16
8894;BME280;4483;48.622;9.230;2023-03-01T11:33:10;98134.66;;;13.83;37.55
8894;BME280;4483;48.622;9.230;2023-03-01T11:35:44;98132.44;;;14.10;36.42
8894;BME280;4483;48.622;9.230;2023-03-01T11:38:24;98131.84;;;14.05;36.19
8894;BME280;4483;48.622;9.230;2023-03-01T11:40:55;98128.03;;;14.12;36.68
8894;BME280;4483;48.622;9.230;2023-03-01T11:43:32;98124.47;;;14.32;36.21
8894;BME280;4483;48.622;9.230;2023-03-01T11:46:20;98116.63;;;13.99;35.72
8894;BME280;4483;48.622;9.230;2023-03-01T11:48:59;98124.38;;;13.82;36.85
8894;BME280;4483;48.622;9.230;2023-03-01T11:51:41;98113.00;;;13.67;37.02
8894;BME280;4483;48.622;9.230;2023-03-01T11:54:28;98111.06;;;13.54;36.78
8894;BME280;4483;48.622;9.230;2023-03-01T11:57:00;98113.59;;;13.20;37.00
8894;BME280;4483;48.622;9.230;2023-03-01T11:59:59;98107.03;;;13.13;38.08
8894;BME280;4483;48.622;9.230;2023-03-01T12:03:00;98112.72;;;13.00;37.32
8894;BME280;4483;48.622;9.230;2023-03-01T12:05:54;98099.13;;;13.16;36.43
8894;BME280;4483;48.622;9.230;2023-03-01T12:08:33;98086.34;;;13.30;37.98
8894;BME280;4483;48.622;9.230;2023-03-01T12:11:12;98091.28;;;13.53;36.94
8894;BME280;4483;48.622;9.230;2023-03-01T12:13:59;98080.22;;;12.95;37.23
8894;BME280;4483;48.622;9.230;2023-03-01T12:16:40;98077.50;;;12.98;37.67
8894;BME280;4483;48.622;9.230;2023-03-01T12:19:24;98076.91;;;13.47;37.95
8894;BME280;4483;48.622;9.230;2023-03-01T12:22:11;98060.22;;;13.87;37.01
8894;BME280;4483;48.622;9.230;2023-03-01T12:24:57;98059.09;;;14.25;37.27
8894;BME280;4483;48.622;9.230;2023-03-01T12:27:50;98050.19;;;14.48;35.85
8894;BME280;4483;48.622;9.230;2023-03-01T12:30:30;98045.84;;;14.48;37.04
8894;BME280;4483;48.622;9.230;2023-03-01T12:33:11;98049.06;;;14.36;35.96
8894;BME280;4483;48.622;9.230;2023-03-01T12:35:54;98036.63;;;13.93;36.65
8894;BME280;4483;48.622;9.230;2023-03-01T12:38:32;98037.34;;;14.12;36.62
8894;BME280;4483;48.622;9.230;2023-03-01T12:41:23;98022.25;;;14.37;37.30
8894;BME280;4483;48.622;9.230;2023-03-01T12:44:01;98024.66;;;14.40;36.29
8894;BME280;4483;48.622;9.230;2023-03-01T12:46:39;98021.75;;;14.46;35.78
8894;BME280;4483;48.622;9.230;2023-03-01T12:49:14;98008.81;;;14.77;36.29
8894;BME280;4483;48.622;9.230;2023-03-01T12:51:45;98000.41;;;15.03;36.21
8894;BME280;4483;48.622;9.230;2023-03-01T12:54:16;97994.78;;;15.27;35.30
8894;BME280;4483;48.622;9.230;2023-03-01T12:56:46;98004.81;;;15.33;35.51
8894;BME280;4483;48.622;9.230;2023-03-01T12:59:23;97989.50;;;15.44;35.31
8894;BME280;4483;48.622;9.230;2023-03-01T13:01:54;97992.44;;;15.67;35.90
8894;BME280;4483;48.622;9.230;2023-03-01T13:04:35;97986.97;;;15.86;34.95
8894;BME280;4483;48.622;9.230;2023-03-01T13:07:23;97981.75;;;15.86;34.83
8894;BME280;4483;48.622;9.230;2023-03-01T13:09:59;97987.09;;;15.98;34.85
8894;BME280;4483;48.622;9.230;2023-03-01T13:12:51;97980.38;;;15.80;34.07
8894;BME280;4483;48.622;9.230;2023-03-01T13:15:28;97983.19;;;15.32;34.22
8894;BME280;4483;48.622;9.230;2023-03-01T13:17:56;97989.63;;;14.33;34.63
8894;BME280;4483;48.622;9.230;2023-03-01T13:20:26;97988.16;;;13.95;35.26
8894;BME280;4483;48.622;9.230;2023-03-01T13:23:03;97986.06;;;13.69;36.39
8894;BME280;4483;48.622;9.230;2023-03-01T13:25:30;97987.63;;;13.88;36.88
8894;BME280;4483;48.622;9.230;2023-03-01T13:28:35;97980.41;;;14.10;35.82
8894;BME280;4483;48.622;9.230;2023-03-01T13:31:06;97977.72;;;13.96;36.85
8894;BME280;4483;48.622;9.230;2023-03-01T13:33:40;97976.75;;;14.14;36.58
8894;BME280;4483;48.622;9.230;2023-03-01T13:36:07;97971.66;;;14.46;36.66
8894;BME280;4483;48.622;9.230;2023-03-01T13:38:38;97971.50;;;14.64;36.48
8894;BME280;4483;48.622;9.230;2023-03-01T13:41:07;97967.22;;;14.79;35.80
8894;BME280;4483;48.622;9.230;2023-03-01T13:43:35;97970.66;;;14.79;35.41